Terminal Aerodrome Forecast
Issued by NWS

Home | Current Version | Previous Version | Text Only | Print | Product List | Glossary On
Versions: 1 2 3 4 5 6 7 8 9 10 11 12 13 14 15 16 17 18
000
FTUS45 KABQ 132300
TAFFMN
TAF
KFMN 132328Z 1400/1424 VRB05KT P6SM SCT100
     FM140100 04012G22KT P6SM VCTS BKN080CB
     FM140300 09009KT P6SM BKN100
     FM141600 14006KT P6SM SCT100
     FM142100 20006KT P6SM VCTS BKN080CB=

USA.gov is the U.S. government's official web portal to all federal, state and local government web resources and services.